Time;durP1;ratioP1;P1;durP2;ratioP2;P2;SDS_P1;SDS_P2;PMS_P1;PMS_P2;Temp;Humidity;BMP_temperature;BMP_pressure;BME280_temperature;BME280_humidity;BME280_pressure;Samples;Min_cycle;Max_cycle;Signal;HPM_P1;HPM_P2
2023/06/01 00:01:52;;;;;;;3.87;2.80;;;;;;;;;;6128018;23;20365;-86
2023/06/01 00:04:18;;;;;;;3.70;2.50;;;;;;;;;;6103401;23;20385;-87
2023/06/01 00:06:44;;;;;;;5.63;2.73;;;;;;;;;;6104049;23;20373;-86
2023/06/01 00:09:10;;;;;;;4.33;2.60;;;;;;;;;;6103882;23;20421;-86
2023/06/01 00:11:36;;;;;;;4.23;2.57;;;;;;;;;;6128477;23;20440;-87
2023/06/01 00:14:02;;;;;;;3.87;2.77;;;;;;;;;;6102559;23;20448;-86
2023/06/01 00:16:31;;;;;;;4.23;2.87;;;;;;;;;;6102687;23;20373;-87
2023/06/01 00:19:00;;;;;;;5.60;3.20;;;;;;;;;;6103348;23;20796;-86
2023/06/01 00:21:26;;;;;;;5.43;2.50;;;;;;;;;;6103505;23;20865;-86
2023/06/01 00:23:52;;;;;;;4.57;2.60;;;;;;;;;;6102255;23;20373;-86
2023/06/01 00:26:18;;;;;;;3.27;2.60;;;;;;;;;;6103935;23;20487;-87
2023/06/01 00:28:44;;;;;;;5.63;5.07;;;;;;;;;;6104452;23;20904;-87
2023/06/01 00:31:10;;;;;;;5.40;3.30;;;;;;;;;;6103338;23;20392;-86
2023/06/01 00:33:36;;;;;;;4.10;2.63;;;;;;;;;;6103219;23;20377;-86
2023/06/01 00:36:02;;;;;;;3.60;2.97;;;;;;;;;;6103590;23;20381;-87
2023/06/01 00:38:28;;;;;;;2.97;2.20;;;;;;;;;;6103150;23;20396;-86
2023/06/01 00:40:54;;;;;;;4.10;2.73;;;;;;;;;;6102169;23;20858;-87
2023/06/01 00:43:20;;;;;;;5.70;2.60;;;;;;;;;;6102372;23;20433;-86
2023/06/01 00:45:46;;;;;;;4.33;3.00;;;;;;;;;;6103260;23;20393;-86
2023/06/01 00:48:12;;;;;;;3.30;2.80;;;;;;;;;;6102677;23;20509;-86
2023/06/01 00:50:38;;;;;;;3.97;2.77;;;;;;;;;;6102120;23;20403;-86
2023/06/01 00:53:06;;;;;;;5.40;2.90;;;;;;;;;;6103078;23;20492;-85
2023/06/01 00:55:32;;;;;;;8.47;2.67;;;;;;;;;;6103360;23;20368;-86
2023/06/01 00:57:58;;;;;;;3.40;2.53;;;;;;;;;;6106021;23;20389;-85
2023/06/01 01:00:25;;;;;;;6.53;3.00;;;;;;;;;;6125253;23;20407;-88
2023/06/01 01:02:51;;;;;;;3.93;3.30;;;;;;;;;;6182606;23;20372;-86
2023/06/01 01:05:17;;;;;;;3.70;2.73;;;;;;;;;;6159019;23;20414;-86
2023/06/01 01:07:49;;;;;;;7.60;3.10;;;;;;;;;;6160128;23;20910;-86
2023/06/01 01:10:24;;;;;;;3.80;2.87;;;;;;;;;;6183721;23;20406;-86
2023/06/01 01:12:50;;;;;;;4.53;2.50;;;;;;;;;;6183981;23;20747;-88
2023/06/01 01:15:16;;;;;;;3.30;2.27;;;;;;;;;;6183241;23;20383;-88
2023/06/01 01:17:44;;;;;;;3.77;2.73;;;;;;;;;;6183757;23;20462;-86
2023/06/01 01:20:11;;;;;;;3.53;2.93;;;;;;;;;;6158939;23;20766;-86
2023/06/01 01:22:40;;;;;;;7.07;3.43;;;;;;;;;;6159009;23;20470;-87
2023/06/01 01:25:22;;;;;;;4.47;2.80;;;;;;;;;;6184840;23;20371;-86
2023/06/01 01:28:06;;;;;;;5.73;3.53;;;;;;;;;;6160024;23;20435;-87
2023/06/01 01:30:32;;;;;;;5.10;3.60;;;;;;;;;;6183972;23;20348;-86
2023/06/01 01:32:58;;;;;;;5.27;3.07;;;;;;;;;;6158278;23;20469;-86
2023/06/01 01:35:24;;;;;;;5.30;3.43;;;;;;;;;;6158981;23;20775;-86
2023/06/01 01:37:51;;;;;;;3.10;2.63;;;;;;;;;;6160235;23;20722;-85
2023/06/01 01:40:17;;;;;;;4.07;3.23;;;;;;;;;;6158556;23;20951;-86
2023/06/01 01:42:43;;;;;;;4.27;2.90;;;;;;;;;;6158939;23;20466;-86
2023/06/01 01:45:09;;;;;;;4.00;2.87;;;;;;;;;;6157806;23;20801;-90
2023/06/01 01:47:36;;;;;;;4.90;3.13;;;;;;;;;;6159766;23;20438;-89
2023/06/01 01:50:06;;;;;;;5.43;2.53;;;;;;;;;;6158422;23;20394;-87
2023/06/01 01:52:33;;;;;;;9.87;3.03;;;;;;;;;;6158848;23;20384;-85
2023/06/01 01:54:59;;;;;;;5.27;2.73;;;;;;;;;;6157673;23;20395;-88
2023/06/01 01:57:25;;;;;;;4.90;3.00;;;;;;;;;;6159718;23;20388;-88
2023/06/01 01:59:51;;;;;;;4.30;3.40;;;;;;;;;;6158610;23;20473;-87
2023/06/01 02:02:17;;;;;;;6.27;5.67;;;;;;;;;;6158222;23;20419;-87
2023/06/01 02:04:45;;;;;;;4.57;2.93;;;;;;;;;;6158408;23;20383;-86
2023/06/01 02:07:11;;;;;;;4.27;3.10;;;;;;;;;;6158999;23;20416;-87
2023/06/01 02:09:37;;;;;;;4.00;2.70;;;;;;;;;;6158134;23;20411;-88
2023/06/01 02:12:04;;;;;;;4.13;2.67;;;;;;;;;;6158330;23;20864;-87
2023/06/01 02:14:30;;;;;;;4.20;2.80;;;;;;;;;;6158103;23;20376;-88
2023/06/01 02:16:56;;;;;;;4.57;3.30;;;;;;;;;;6157900;23;20380;-88
2023/06/01 02:19:22;;;;;;;4.73;2.63;;;;;;;;;;6157971;23;20388;-87
2023/06/01 02:21:48;;;;;;;3.77;3.07;;;;;;;;;;6157497;23;20395;-87
2023/06/01 02:24:14;;;;;;;4.37;2.50;;;;;;;;;;6157445;23;20411;-87
2023/06/01 02:26:40;;;;;;;6.20;3.20;;;;;;;;;;6157531;23;20379;-87
2023/06/01 02:29:06;;;;;;;5.97;3.83;;;;;;;;;;6184443;23;20420;-87
2023/06/01 02:31:33;;;;;;;5.77;3.23;;;;;;;;;;6157513;23;20376;-87
2023/06/01 02:33:59;;;;;;;4.70;2.70;;;;;;;;;;6155943;23;20731;-88
2023/06/01 02:36:26;;;;;;;3.43;2.23;;;;;;;;;;6156742;23;20388;-87
2023/06/01 02:38:52;;;;;;;6.13;2.30;;;;;;;;;;6158066;23;20377;-87
2023/06/01 02:41:18;;;;;;;2.90;2.60;;;;;;;;;;6182361;23;20362;-87
2023/06/01 02:43:44;;;;;;;5.03;2.53;;;;;;;;;;6157621;23;20384;-88
2023/06/01 02:46:10;;;;;;;5.50;2.50;;;;;;;;;;6157607;23;20392;-87
2023/06/01 02:48:36;;;;;;;4.10;2.33;;;;;;;;;;6158249;23;20474;-88
2023/06/01 02:51:02;;;;;;;3.20;2.90;;;;;;;;;;6157482;23;20395;-87
2023/06/01 02:53:28;;;;;;;3.33;2.67;;;;;;;;;;6157985;23;20391;-87
2023/06/01 02:55:54;;;;;;;4.60;2.73;;;;;;;;;;6182957;23;20418;-87
2023/06/01 02:58:21;;;;;;;2.83;2.50;;;;;;;;;;6159686;23;20451;-87
2023/06/01 03:00:47;;;;;;;5.37;3.10;;;;;;;;;;6158349;23;20403;-87
2023/06/01 03:03:13;;;;;;;4.73;3.30;;;;;;;;;;6181665;23;20882;-87
2023/06/01 03:05:39;;;;;;;8.17;3.07;;;;;;;;;;6157434;23;20400;-87
2023/06/01 03:08:08;;;;;;;3.33;2.70;;;;;;;;;;6158076;23;20422;-87
2023/06/01 03:10:35;;;;;;;3.53;2.47;;;;;;;;;;6157716;23;20376;-87
2023/06/01 03:13:01;;;;;;;4.10;2.67;;;;;;;;;;6160714;23;20391;-88
2023/06/01 03:15:27;;;;;;;8.03;3.20;;;;;;;;;;6158229;23;20384;-87
2023/06/01 03:17:53;;;;;;;4.30;2.63;;;;;;;;;;6160735;23;20416;-87
2023/06/01 03:20:19;;;;;;;6.10;2.93;;;;;;;;;;6185225;23;20371;-86
2023/06/01 03:22:45;;;;;;;4.30;2.63;;;;;;;;;;6182034;23;20384;-87
2023/06/01 03:25:12;;;;;;;4.30;2.63;;;;;;;;;;6183945;23;20387;-88
2023/06/01 03:27:41;;;;;;;4.97;3.03;;;;;;;;;;6160042;23;20427;-86
2023/06/01 03:30:11;;;;;;;6.03;3.37;;;;;;;;;;6130437;23;20402;-87
2023/06/01 03:32:37;;;;;;;3.83;2.37;;;;;;;;;;6104541;23;20389;-87
2023/06/01 03:35:04;;;;;;;6.00;2.77;;;;;;;;;;6104563;23;20881;-87
2023/06/01 03:37:30;;;;;;;6.67;2.93;;;;;;;;;;6133652;23;20940;-92
2023/06/01 03:39:56;;;;;;;4.53;3.10;;;;;;;;;;6110412;23;20440;-94
2023/06/01 03:42:22;;;;;;;6.23;3.10;;;;;;;;;;6108801;23;20424;-91
2023/06/01 03:44:48;;;;;;;4.40;3.10;;;;;;;;;;6109291;23;20424;-92
2023/06/01 03:47:14;;;;;;;4.53;3.07;;;;;;;;;;6108067;23;20377;-93
2023/06/01 03:49:40;;;;;;;4.77;3.70;;;;;;;;;;6107803;23;20452;-92
2023/06/01 03:52:06;;;;;;;5.53;3.40;;;;;;;;;;6108823;23;20425;-93
2023/06/01 03:54:33;;;;;;;4.50;3.40;;;;;;;;;;6107386;23;20873;-93
2023/06/01 03:56:59;;;;;;;5.83;2.97;;;;;;;;;;6107689;23;20381;-93
2023/06/01 03:59:25;;;;;;;3.63;3.17;;;;;;;;;;6107027;23;20463;-95
2023/06/01 04:01:51;;;;;;;3.80;2.70;;;;;;;;;;6154967;23;20360;-94
2023/06/01 04:04:17;;;;;;;6.00;3.17;;;;;;;;;;6136252;23;20377;-93
2023/06/01 04:06:45;;;;;;;4.07;2.90;;;;;;;;;;6108373;23;20881;-94
2023/06/01 04:09:11;;;;;;;4.00;3.10;;;;;;;;;;6106539;23;20439;-91
2023/06/01 04:11:38;;;;;;;5.50;3.27;;;;;;;;;;6105121;23;21209;-92
2023/06/01 04:19:16;;;;;;;3.63;2.70;;;;;;;;;;6192939;23;20427;-91
2023/06/01 04:21:45;;;;;;;6.53;3.20;;;;;;;;;;6142116;23;20418;-94
2023/06/01 04:24:11;;;;;;;5.53;2.57;;;;;;;;;;6142037;23;20403;-94
2023/06/01 04:26:37;;;;;;;4.53;3.00;;;;;;;;;;6141710;23;20380;-93
2023/06/01 04:29:03;;;;;;;3.87;3.17;;;;;;;;;;6142442;23;20450;-94
2023/06/01 04:31:34;;;;;;;4.30;2.50;;;;;;;;;;6140398;23;20441;-94
2023/06/01 04:34:01;;;;;;;6.63;3.67;;;;;;;;;;6146916;23;20368;-94
2023/06/01 04:36:28;;;;;;;4.93;3.30;;;;;;;;;;6139960;23;20844;-94
2023/06/01 04:38:58;;;;;;;5.80;2.70;;;;;;;;;;6139195;23;20785;-92
2023/06/01 04:41:28;;;;;;;6.03;3.10;;;;;;;;;;6141453;23;20393;-91
2023/06/01 04:43:55;;;;;;;7.90;3.40;;;;;;;;;;6144761;23;20863;-92
2023/06/01 04:46:23;;;;;;;3.20;2.90;;;;;;;;;;6143695;23;20391;-92
2023/06/01 04:48:49;;;;;;;4.60;2.83;;;;;;;;;;6144066;23;20478;-90
2023/06/01 04:51:19;;;;;;;4.50;3.00;;;;;;;;;;6142198;23;20356;-92
2023/06/01 04:53:49;;;;;;;4.17;2.87;;;;;;;;;;6142563;23;20377;-91
2023/06/01 04:56:15;;;;;;;7.23;3.90;;;;;;;;;;6143166;23;20375;-91
2023/06/01 04:58:41;;;;;;;7.73;3.50;;;;;;;;;;6142636;23;20399;-91
2023/06/01 05:01:07;;;;;;;3.60;2.70;;;;;;;;;;6141262;23;20412;-92
2023/06/01 05:03:38;;;;;;;6.87;3.20;;;;;;;;;;6143661;23;20414;-91
2023/06/01 05:06:05;;;;;;;5.90;2.73;;;;;;;;;;6140984;23;20452;-92
2023/06/01 05:08:33;;;;;;;4.07;3.17;;;;;;;;;;6141584;23;20423;-92
2023/06/01 05:10:59;;;;;;;3.87;2.70;;;;;;;;;;6140842;23;20438;-93
2023/06/01 05:13:25;;;;;;;4.70;3.30;;;;;;;;;;6141276;23;20769;-92
2023/06/01 05:15:51;;;;;;;7.23;3.30;;;;;;;;;;6142261;23;20699;-92
2023/06/01 05:18:17;;;;;;;3.30;2.50;;;;;;;;;;6143186;23;20688;-92
2023/06/01 05:20:43;;;;;;;5.93;3.10;;;;;;;;;;6142300;23;20715;-93
2023/06/01 05:23:09;;;;;;;6.10;3.50;;;;;;;;;;6143323;23;20526;-92
2023/06/01 05:25:35;;;;;;;6.63;3.23;;;;;;;;;;6142955;23;20388;-92
2023/06/01 05:28:01;;;;;;;4.83;3.07;;;;;;;;;;6142318;23;20419;-92
2023/06/01 05:30:27;;;;;;;6.33;3.10;;;;;;;;;;6141121;23;20399;-91
2023/06/01 05:32:53;;;;;;;4.63;2.90;;;;;;;;;;6139001;23;20380;-91
2023/06/01 05:35:20;;;;;;;3.40;2.50;;;;;;;;;;6137862;23;20380;-91
2023/06/01 05:37:49;;;;;;;8.80;3.27;;;;;;;;;;6165845;23;20820;-90
2023/06/01 05:40:16;;;;;;;8.77;3.40;;;;;;;;;;6140263;23;21014;-90
2023/06/01 05:42:42;;;;;;;6.07;3.23;;;;;;;;;;6143565;23;20428;-90
2023/06/01 05:45:09;;;;;;;5.27;3.10;;;;;;;;;;6141724;23;20379;-90
2023/06/01 05:47:35;;;;;;;4.20;2.97;;;;;;;;;;6141074;23;20424;-90
2023/06/01 05:50:01;;;;;;;8.10;2.77;;;;;;;;;;6138245;23;20380;-90
2023/06/01 05:52:33;;;;;;;3.43;2.23;;;;;;;;;;6142016;23;20376;-93
2023/06/01 05:54:59;;;;;;;3.27;2.40;;;;;;;;;;6140410;23;20894;-92
2023/06/01 05:57:26;;;;;;;3.77;2.57;;;;;;;;;;6142535;23;20495;-92
2023/06/01 05:59:53;;;;;;;4.47;2.67;;;;;;;;;;6142095;23;20435;-92
2023/06/01 06:02:22;;;;;;;3.73;2.33;;;;;;;;;;6144279;23;20868;-92
2023/06/01 06:04:48;;;;;;;4.70;2.80;;;;;;;;;;6144627;23;20384;-91
2023/06/01 06:07:14;;;;;;;5.00;2.60;;;;;;;;;;6143538;23;20871;-93
2023/06/01 06:09:40;;;;;;;3.40;2.37;;;;;;;;;;6143552;23;20372;-92
2023/06/01 06:12:07;;;;;;;4.33;2.80;;;;;;;;;;6144384;23;20820;-92
2023/06/01 06:14:34;;;;;;;3.00;2.40;;;;;;;;;;6144605;23;20833;-93
2023/06/01 06:17:02;;;;;;;7.00;2.60;;;;;;;;;;6167328;23;20360;-92
2023/06/01 06:19:29;;;;;;;4.33;3.00;;;;;;;;;;6168447;23;21000;-92
2023/06/01 06:21:56;;;;;;;3.00;2.70;;;;;;;;;;6169547;23;20361;-93
2023/06/01 06:24:22;;;;;;;4.63;2.40;;;;;;;;;;6144290;23;20384;-92
2023/06/01 06:26:49;;;;;;;5.60;2.40;;;;;;;;;;6143608;23;20688;-92
2023/06/01 06:29:15;;;;;;;3.30;2.50;;;;;;;;;;6144486;23;20427;-92
2023/06/01 06:31:42;;;;;;;4.70;2.70;;;;;;;;;;6144467;23;20412;-92
2023/06/01 06:34:09;;;;;;;5.57;3.23;;;;;;;;;;6143924;23;20372;-93
2023/06/01 06:36:38;;;;;;;5.30;2.90;;;;;;;;;;6142506;23;20380;-93
2023/06/01 06:39:04;;;;;;;5.60;2.83;;;;;;;;;;6142333;23;20474;-92
2023/06/01 06:41:30;;;;;;;6.17;3.17;;;;;;;;;;6141170;23;20735;-92
2023/06/01 06:43:57;;;;;;;4.93;3.00;;;;;;;;;;6168122;23;20443;-93
2023/06/01 06:46:23;;;;;;;7.60;3.30;;;;;;;;;;6142432;23;20825;-92
2023/06/01 06:48:49;;;;;;;4.30;3.30;;;;;;;;;;6142620;23;20432;-92
2023/06/01 06:51:15;;;;;;;8.70;3.90;;;;;;;;;;6142059;23;20372;-92
2023/06/01 06:53:41;;;;;;;5.57;3.60;;;;;;;;;;6142523;23;20391;-92
2023/06/01 06:56:07;;;;;;;6.37;3.73;;;;;;;;;;6142206;23;20379;-92
2023/06/01 06:58:33;;;;;;;7.13;3.93;;;;;;;;;;6142333;23;20387;-92
2023/06/01 07:01:04;;;;;;;4.33;3.10;;;;;;;;;;6141876;23;20384;-92
2023/06/01 07:03:33;;;;;;;7.43;4.53;;;;;;;;;;6144514;23;20384;-93
2023/06/01 07:05:59;;;;;;;7.07;3.83;;;;;;;;;;6140757;23;20391;-92
2023/06/01 07:08:26;;;;;;;11.57;3.30;;;;;;;;;;6142154;23;20513;-92
2023/06/01 07:10:56;;;;;;;7.93;3.20;;;;;;;;;;6141492;23;20751;-93
2023/06/01 07:13:22;;;;;;;6.90;3.30;;;;;;;;;;6143747;23;20380;-93
2023/06/01 07:15:48;;;;;;;6.07;3.80;;;;;;;;;;6142048;23;20434;-92
2023/06/01 07:18:14;;;;;;;7.90;4.17;;;;;;;;;;6145873;23;20435;-93
2023/06/01 07:20:54;;;;;;;4.00;3.40;;;;;;;;;;6140845;23;20408;-94
2023/06/01 07:23:20;;;;;;;4.00;2.97;;;;;;;;;;6143244;23;20707;-93
2023/06/01 07:25:46;;;;;;;6.10;3.70;;;;;;;;;;6140413;23;20384;-94
2023/06/01 07:28:12;;;;;;;5.43;3.80;;;;;;;;;;6145361;23;20422;-93
2023/06/01 07:30:39;;;;;;;3.57;3.10;;;;;;;;;;6168278;23;20360;-92
2023/06/01 07:33:05;;;;;;;5.50;3.03;;;;;;;;;;6145256;23;20827;-92
2023/06/01 07:35:33;;;;;;;6.33;4.00;;;;;;;;;;6141378;23;20467;-92
2023/06/01 07:37:59;;;;;;;5.17;3.80;;;;;;;;;;6141738;23;20583;-93
2023/06/01 07:40:26;;;;;;;7.83;3.60;;;;;;;;;;6142281;23;20456;-93
2023/06/01 07:42:52;;;;;;;7.07;4.40;;;;;;;;;;6143147;23;20430;-93
2023/06/01 07:45:18;;;;;;;5.47;3.80;;;;;;;;;;6142821;23;20411;-93
2023/06/01 07:47:44;;;;;;;8.13;4.13;;;;;;;;;;6141882;23;20475;-93
2023/06/01 07:50:14;;;;;;;5.70;3.43;;;;;;;;;;6143682;23;20380;-93
2023/06/01 07:52:41;;;;;;;8.40;4.40;;;;;;;;;;6145880;23;20387;-92
2023/06/01 07:55:15;;;;;;;5.23;4.27;;;;;;;;;;6142598;23;20388;-93
2023/06/01 07:57:41;;;;;;;4.80;3.93;;;;;;;;;;6143999;23;20380;-93
2023/06/01 08:00:11;;;;;;;7.70;3.80;;;;;;;;;;6142337;23;20387;-93
2023/06/01 08:02:41;;;;;;;5.07;3.90;;;;;;;;;;6145494;23;20418;-93
2023/06/01 08:05:11;;;;;;;6.57;3.90;;;;;;;;;;6150527;23;20384;-92
2023/06/01 08:07:42;;;;;;;5.27;4.00;;;;;;;;;;6149235;23;20451;-92
2023/06/01 08:10:08;;;;;;;6.53;4.17;;;;;;;;;;6149406;23;20388;-94
2023/06/01 08:12:37;;;;;;;6.20;4.90;;;;;;;;;;6144979;23;20446;-91
2023/06/01 08:15:04;;;;;;;15.43;5.27;;;;;;;;;;6169589;23;20946;-92
2023/06/01 08:17:32;;;;;;;4.90;4.40;;;;;;;;;;6142515;23;20434;-92
2023/06/01 08:20:13;;;;;;;5.33;4.50;;;;;;;;;;6143924;23;20546;-91
2023/06/01 08:22:41;;;;;;;6.53;5.03;;;;;;;;;;6170301;23;20348;-91
2023/06/01 08:25:07;;;;;;;5.63;4.40;;;;;;;;;;6139718;23;20427;-93
2023/06/01 08:27:33;;;;;;;5.53;4.93;;;;;;;;;;6144328;23;20408;-92
2023/06/01 08:29:59;;;;;;;6.77;4.00;;;;;;;;;;6143820;23;20391;-93
2023/06/01 08:32:26;;;;;;;5.33;4.80;;;;;;;;;;6146474;23;20383;-93
2023/06/01 08:34:52;;;;;;;7.03;4.43;;;;;;;;;;6168259;23;20380;-93
2023/06/01 08:37:18;;;;;;;5.67;5.00;;;;;;;;;;6144201;23;20384;-93
2023/06/01 08:39:44;;;;;;;4.60;4.07;;;;;;;;;;6143570;23;20478;-93
2023/06/01 08:42:21;;;;;;;7.10;4.73;;;;;;;;;;6145865;23;20377;-93
2023/06/01 08:44:47;;;;;;;7.90;4.70;;;;;;;;;;6141382;23;20386;-92
2023/06/01 08:47:17;;;;;;;7.80;5.13;;;;;;;;;;6141680;23;20380;-92
2023/06/01 08:49:43;;;;;;;7.87;5.00;;;;;;;;;;6142690;23;20383;-92
2023/06/01 08:52:13;;;;;;;9.20;5.30;;;;;;;;;;6143172;23;20387;-93
2023/06/01 08:54:40;;;;;;;8.27;5.47;;;;;;;;;;6143331;23;20392;-90
2023/06/01 08:57:12;;;;;;;8.40;4.93;;;;;;;;;;6148140;23;20376;-93
2023/06/01 08:59:39;;;;;;;7.57;5.07;;;;;;;;;;6083574;23;20370;-92
2023/06/01 09:02:05;;;;;;;10.00;4.50;;;;;;;;;;6080848;23;20390;-93
2023/06/01 09:04:34;;;;;;;6.20;5.37;;;;;;;;;;6081640;23;20378;-92
2023/06/01 09:07:06;;;;;;;10.40;5.80;;;;;;;;;;6085097;23;20438;-92
2023/06/01 09:09:32;;;;;;;7.40;4.90;;;;;;;;;;6081332;23;20441;-93
2023/06/01 09:12:17;;;;;;;9.40;5.60;;;;;;;;;;6079292;23;20397;-92
2023/06/01 09:14:43;;;;;;;6.07;5.13;;;;;;;;;;6077072;23;20421;-92
2023/06/01 09:17:13;;;;;;;6.07;5.00;;;;;;;;;;6077304;23;20383;-91
2023/06/01 09:19:44;;;;;;;7.00;5.10;;;;;;;;;;6078272;23;20438;-90
2023/06/01 09:22:13;;;;;;;6.10;5.10;;;;;;;;;;6046444;23;20421;-92
2023/06/01 09:24:43;;;;;;;6.37;4.70;;;;;;;;;;6047586;23;20462;-91
2023/06/01 09:27:10;;;;;;;8.17;4.33;;;;;;;;;;6048722;23;20387;-91
2023/06/01 09:29:36;;;;;;;8.40;5.07;;;;;;;;;;6055437;23;20430;-91
2023/06/01 09:32:05;;;;;;;8.27;5.70;;;;;;;;;;6081786;23;20448;-92
2023/06/01 09:34:34;;;;;;;10.37;6.87;;;;;;;;;;6069938;23;20400;-91
2023/06/01 09:37:00;;;;;;;9.73;5.50;;;;;;;;;;6069023;23;20471;-91
2023/06/01 09:39:26;;;;;;;6.87;5.50;;;;;;;;;;6073194;23;20812;-92
2023/06/01 09:41:53;;;;;;;8.43;5.80;;;;;;;;;;6071069;23;20459;-92
2023/06/01 09:44:25;;;;;;;7.77;4.83;;;;;;;;;;6071233;23;20466;-90
2023/06/01 09:46:58;;;;;;;6.83;4.47;;;;;;;;;;6071350;23;20717;-93
2023/06/01 09:49:25;;;;;;;7.77;5.27;;;;;;;;;;6068930;23;20486;-91
2023/06/01 09:51:52;;;;;;;11.10;7.33;;;;;;;;;;6068219;23;20948;-92
2023/06/01 09:54:28;;;;;;;7.23;5.60;;;;;;;;;;6126804;23;20468;-91
2023/06/01 09:56:54;;;;;;;7.63;5.00;;;;;;;;;;6080363;23;20882;-90
2023/06/01 09:59:21;;;;;;;6.57;4.73;;;;;;;;;;6078514;23;20473;-91
2023/06/01 10:01:51;;;;;;;6.27;5.60;;;;;;;;;;6103394;23;20470;-91
2023/06/01 10:04:19;;;;;;;5.60;5.00;;;;;;;;;;6080849;23;20400;-90
2023/06/01 10:06:45;;;;;;;7.23;5.60;;;;;;;;;;6138545;23;20383;-91
2023/06/01 10:09:15;;;;;;;7.47;5.90;;;;;;;;;;6138605;23;20447;-91
2023/06/01 10:11:41;;;;;;;8.43;6.50;;;;;;;;;;6138936;23;20384;-88
2023/06/01 10:14:13;;;;;;;7.97;5.47;;;;;;;;;;6147787;23;20387;-90
2023/06/01 10:16:40;;;;;;;6.07;5.40;;;;;;;;;;6163291;23;20364;-90
2023/06/01 10:19:07;;;;;;;6.70;6.10;;;;;;;;;;6141784;23;20412;-91
2023/06/01 10:21:33;;;;;;;6.43;5.30;;;;;;;;;;6139028;23;20395;-91
2023/06/01 10:23:59;;;;;;;7.73;5.53;;;;;;;;;;6138574;23;20388;-91
2023/06/01 10:26:26;;;;;;;9.33;5.80;;;;;;;;;;6138096;23;20398;-92
2023/06/01 10:28:55;;;;;;;7.30;5.50;;;;;;;;;;6137650;23;20497;-92
2023/06/01 10:31:40;;;;;;;8.83;5.80;;;;;;;;;;6137765;23;20720;-91
2023/06/01 10:34:07;;;;;;;8.30;5.50;;;;;;;;;;6143022;23;20400;-91
2023/06/01 10:36:51;;;;;;;10.13;5.53;;;;;;;;;;6137557;23;20391;-91
2023/06/01 10:39:26;;;;;;;6.17;4.90;;;;;;;;;;6163753;23;20745;-91
2023/06/01 10:42:17;;;;;;;6.80;5.33;;;;;;;;;;6163479;23;20416;-91
2023/06/01 10:44:44;;;;;;;6.80;4.83;;;;;;;;;;6164279;23;20429;-91
2023/06/01 10:47:13;;;;;;;6.30;4.90;;;;;;;;;;6162466;23;20399;-89
2023/06/01 10:49:51;;;;;;;7.43;5.00;;;;;;;;;;6164014;23;20446;-90
2023/06/01 10:52:43;;;;;;;5.63;4.90;;;;;;;;;;6188210;23;20364;-90
2023/06/01 10:55:13;;;;;;;6.27;4.57;;;;;;;;;;6156726;23;20406;-90
2023/06/01 10:57:46;;;;;;;8.03;5.20;;;;;;;;;;6188749;23;20411;-90
2023/06/01 11:00:19;;;;;;;6.30;5.53;;;;;;;;;;6143181;23;20376;-91
2023/06/01 11:02:48;;;;;;;5.67;4.70;;;;;;;;;;6167777;23;20376;-90
2023/06/01 11:05:33;;;;;;;6.60;4.97;;;;;;;;;;6170719;23;20721;-92
2023/06/01 11:07:59;;;;;;;5.20;4.40;;;;;;;;;;6166124;23;20420;-91
2023/06/01 11:10:44;;;;;;;18.13;5.20;;;;;;;;;;6139635;23;21499;-91
2023/06/01 11:13:17;;;;;;;9.87;6.30;;;;;;;;;;6165500;23;20375;-92
2023/06/01 11:16:03;;;;;;;5.93;4.73;;;;;;;;;;6142867;23;20382;-90
2023/06/01 11:18:42;;;;;;;5.87;4.80;;;;;;;;;;6165351;23;20750;-91
2023/06/01 11:27:16;;;;;;;5.87;5.20;;;;;;;;;;6045516;23;20347;-90
2023/06/01 11:29:48;;;;;;;5.87;4.67;;;;;;;;;;6015465;23;20632;-92
2023/06/01 11:32:14;;;;;;;10.00;5.73;;;;;;;;;;6011910;23;20472;-92
2023/06/01 11:34:45;;;;;;;6.20;5.00;;;;;;;;;;6015911;23;20395;-90
2023/06/01 11:37:14;;;;;;;5.30;4.60;;;;;;;;;;6013124;23;20392;-89
2023/06/01 11:39:40;;;;;;;7.50;5.60;;;;;;;;;;6017450;23;20392;-90
2023/06/01 11:42:07;;;;;;;7.10;5.27;;;;;;;;;;6017416;23;20540;-92
2023/06/01 11:44:36;;;;;;;5.47;4.90;;;;;;;;;;6019095;23;20388;-92
2023/06/01 11:47:04;;;;;;;5.63;4.13;;;;;;;;;;6017919;23;20373;-91
2023/06/01 11:49:30;;;;;;;8.07;4.50;;;;;;;;;;6019807;23;20892;-90
2023/06/01 11:51:56;;;;;;;6.33;4.90;;;;;;;;;;6021133;23;20696;-90
2023/06/01 11:54:29;;;;;;;7.80;5.47;;;;;;;;;;5935804;24;20871;-91
2023/06/01 11:56:55;;;;;;;5.40;4.87;;;;;;;;;;5937036;24;20394;-91
2023/06/01 11:59:21;;;;;;;6.20;5.17;;;;;;;;;;5940865;24;20406;-94
2023/06/01 12:07:47;;;;;;;6.33;5.57;;;;;;;;;;6021014;23;20440;-93
2023/06/01 12:10:39;;;;;;;9.07;4.53;;;;;;;;;;5978050;23;20408;-94
2023/06/01 12:13:21;;;;;;;6.37;4.80;;;;;;;;;;5998077;23;20409;-94
2023/06/01 12:15:54;;;;;;;7.37;5.57;;;;;;;;;;5966382;24;20391;-94
2023/06/01 12:18:44;;;;;;;9.80;5.40;;;;;;;;;;5942785;24;20916;-94
2023/06/01 12:21:19;;;;;;;6.67;5.10;;;;;;;;;;5945874;24;20478;-94
2023/06/01 12:24:01;;;;;;;8.37;5.30;;;;;;;;;;5947637;24;20697;-94
2023/06/01 12:26:50;;;;;;;5.50;4.90;;;;;;;;;;6004307;23;20381;-94
2023/06/01 12:32:32;;;;;;;5.50;4.90;;;;;;;;;;6027790;23;20398;-93
2023/06/01 12:35:07;;;;;;;10.30;5.17;;;;;;;;;;6009396;23;20419;-94
2023/06/01 12:37:34;;;;;;;5.70;5.10;;;;;;;;;;6058505;23;20525;-93
2023/06/01 12:40:00;;;;;;;6.13;4.77;;;;;;;;;;6090794;23;20391;-94
2023/06/01 12:42:42;;;;;;;9.33;5.70;;;;;;;;;;6147921;23;20383;-93
2023/06/01 12:45:08;;;;;;;4.57;4.17;;;;;;;;;;6150032;23;20379;-93
2023/06/01 12:47:40;;;;;;;5.07;4.57;;;;;;;;;;6151394;23;20407;-92
2023/06/01 12:50:11;;;;;;;5.07;4.57;;;;;;;;;;6153541;23;20377;-94
2023/06/01 12:52:37;;;;;;;7.53;4.90;;;;;;;;;;6148181;23;20396;-95
2023/06/01 12:55:07;;;;;;;5.83;4.83;;;;;;;;;;6149128;23;20372;-94
2023/06/01 12:57:33;;;;;;;7.00;4.67;;;;;;;;;;6149388;23;20399;-94
2023/06/01 12:59:59;;;;;;;7.90;5.27;;;;;;;;;;6148683;23;20380;-95
2023/06/01 13:02:43;;;;;;;;;;;;;;;;;;;;;
2023/06/01 13:05:45;;;;;;;9.87;5.37;;;;;;;;;;6175067;23;20367;-94
2023/06/01 13:08:11;;;;;;;5.67;5.13;;;;;;;;;;6171728;23;20427;-95
2023/06/01 13:10:37;;;;;;;7.07;5.00;;;;;;;;;;6149788;23;20391;-95
2023/06/01 13:13:10;;;;;;;6.63;5.40;;;;;;;;;;6112371;23;20366;-94
2023/06/01 13:15:50;;;;;;;8.73;5.07;;;;;;;;;;6140871;23;20432;-92
2023/06/01 13:18:19;;;;;;;5.93;4.80;;;;;;;;;;6114915;23;20373;-93
2023/06/01 13:21:12;;;;;;;15.33;5.77;;;;;;;;;;6113665;23;20497;-93
2023/06/01 13:23:50;;;;;;;6.10;5.33;;;;;;;;;;6084375;23;20376;-93
2023/06/01 13:26:16;;;;;;;7.10;5.20;;;;;;;;;;6079243;23;20482;-93
2023/06/01 13:29:01;;;;;;;8.30;5.80;;;;;;;;;;6081444;23;20459;-93
2023/06/01 13:31:32;;;;;;;6.63;5.10;;;;;;;;;;6079088;23;20500;-92
2023/06/01 13:34:06;;;;;;;7.23;5.30;;;;;;;;;;6079742;23;20386;-94
2023/06/01 13:36:35;;;;;;;7.37;4.90;;;;;;;;;;6082622;23;20892;-93
2023/06/01 13:39:04;;;;;;;6.83;5.43;;;;;;;;;;6081005;23;20403;-93
2023/06/01 13:41:30;;;;;;;5.20;4.40;;;;;;;;;;6080834;23;20454;-95
2023/06/01 13:43:56;;;;;;;6.23;4.77;;;;;;;;;;6095765;23;20378;-93
2023/06/01 13:46:22;;;;;;;6.13;5.53;;;;;;;;;;6078924;23;20394;-91
2023/06/01 13:48:48;;;;;;;6.33;4.90;;;;;;;;;;6157532;23;20418;-91
2023/06/01 13:51:14;;;;;;;7.40;4.80;;;;;;;;;;6102471;23;20386;-92
2023/06/01 13:53:40;;;;;;;5.87;5.00;;;;;;;;;;6082703;23;20378;-90
2023/06/01 13:56:06;;;;;;;6.37;4.90;;;;;;;;;;6083759;23;20374;-89
2023/06/01 13:58:34;;;;;;;5.83;4.80;;;;;;;;;;6081835;23;20446;-89
2023/06/01 14:01:00;;;;;;;7.83;4.93;;;;;;;;;;6082316;23;20528;-89
2023/06/01 14:06:30;;;;;;;6.93;5.63;;;;;;;;;;6137206;23;20361;-93
2023/06/01 14:08:56;;;;;;;4.97;4.47;;;;;;;;;;6090079;23;20417;-93
2023/06/01 14:11:27;;;;;;;5.70;4.10;;;;;;;;;;6091103;23;20385;-92
2023/06/01 14:13:53;;;;;;;7.27;4.23;;;;;;;;;;6085609;23;20964;-89
2023/06/01 14:16:19;;;;;;;4.50;3.80;;;;;;;;;;6079983;23;20421;-90
2023/06/01 14:18:49;;;;;;;7.23;4.60;;;;;;;;;;6084906;23;20386;-90
2023/06/01 14:21:15;;;;;;;5.50;4.23;;;;;;;;;;6046418;23;20562;-90
2023/06/01 14:23:44;;;;;;;4.77;3.57;;;;;;;;;;6024036;23;20606;-89
2023/06/01 14:26:10;;;;;;;5.13;4.17;;;;;;;;;;6022075;23;20388;-89
2023/06/01 14:28:36;;;;;;;7.67;4.10;;;;;;;;;;6021770;23;20474;-90
2023/06/01 14:31:02;;;;;;;5.80;4.43;;;;;;;;;;6021440;23;20383;-90
2023/06/01 14:33:28;;;;;;;6.20;3.97;;;;;;;;;;6024661;23;20923;-90
2023/06/01 14:35:55;;;;;;;5.13;3.53;;;;;;;;;;6028251;23;20388;-90
2023/06/01 14:38:22;;;;;;;5.33;3.90;;;;;;;;;;6030375;23;20610;-90
2023/06/01 14:40:48;;;;;;;5.40;3.97;;;;;;;;;;6026931;23;20399;-91
2023/06/01 14:43:14;;;;;;;5.00;3.93;;;;;;;;;;6024587;23;20433;-91
2023/06/01 14:45:40;;;;;;;13.50;4.07;;;;;;;;;;6023380;23;20372;-91
2023/06/01 14:48:11;;;;;;;4.93;3.50;;;;;;;;;;6022093;23;20641;-92
2023/06/01 14:50:37;;;;;;;4.90;3.80;;;;;;;;;;6022723;23;20419;-91
2023/06/01 14:53:03;;;;;;;4.83;3.17;;;;;;;;;;6021377;23;20885;-91
2023/06/01 14:55:30;;;;;;;4.30;3.50;;;;;;;;;;6029478;23;20407;-93
2023/06/01 14:57:56;;;;;;;4.73;3.13;;;;;;;;;;6056905;23;20384;-93
2023/06/01 15:00:22;;;;;;;8.03;3.33;;;;;;;;;;6029080;23;20412;-90
2023/06/01 15:02:48;;;;;;;5.47;2.90;;;;;;;;;;6048752;23;20378;-89
2023/06/01 15:05:14;;;;;;;5.60;3.30;;;;;;;;;;6102377;23;20373;-89
2023/06/01 15:07:41;;;;;;;4.93;3.40;;;;;;;;;;6112952;23;20377;-90
2023/06/01 15:10:07;;;;;;;5.53;2.63;;;;;;;;;;6112275;23;20436;-91
2023/06/01 15:12:33;;;;;;;5.77;3.63;;;;;;;;;;6110740;23;20381;-89
2023/06/01 15:14:59;;;;;;;4.80;3.30;;;;;;;;;;6112883;23;20380;-90